createdAt,value
2022-08-25T00:02:15.948Z,101521.69
2022-08-25T00:04:44.852Z,101521.69
2022-08-25T00:07:20.242Z,101524.78
2022-08-25T00:09:47.011Z,101523.63
2022-08-25T00:12:13.615Z,101518.28
2022-08-25T00:14:40.610Z,101511.75
2022-08-25T00:17:07.343Z,101504.88
2022-08-25T00:19:37.158Z,101509.09
2022-08-25T00:22:04.545Z,101502.56
2022-08-25T00:24:31.349Z,101501.03
2022-08-25T00:26:59.262Z,101501.44
2022-08-25T00:29:26.538Z,101502.19
2022-08-25T00:31:53.990Z,101505.63
2022-08-25T00:34:23.894Z,101504.09
2022-08-25T00:36:53.023Z,101499.13
2022-08-25T00:39:21.214Z,101501.06
2022-08-25T00:41:49.458Z,101500.28
2022-08-25T00:44:18.831Z,101495.69
2022-08-25T00:46:48.586Z,101491.78
2022-08-25T00:49:27.884Z,101492.59
2022-08-25T00:52:16.652Z,101496.75
2022-08-25T00:54:49.964Z,101503.31
2022-08-25T00:57:22.086Z,101509.81
2022-08-25T01:00:00.691Z,101510.97
2022-08-25T01:02:29.886Z,101506.31
2022-08-25T01:04:56.430Z,101499.47
2022-08-25T01:07:23.946Z,101494.50
2022-08-25T01:09:51.524Z,101506.41
2022-08-25T01:12:18.121Z,101506.00
2022-08-25T01:14:46.594Z,101504.47
2022-08-25T01:17:14.093Z,101509.81
2022-08-25T01:19:40.753Z,101504.09
2022-08-25T01:22:07.444Z,101503.69
2022-08-25T01:24:55.028Z,101508.28
2022-08-25T01:27:21.611Z,101510.56
2022-08-25T01:29:49.198Z,101504.47
2022-08-25T01:32:15.819Z,101495.97
2022-08-25T01:34:44.057Z,101501.34
2022-08-25T01:37:13.701Z,101501.69
2022-08-25T01:39:41.774Z,101500.97
2022-08-25T01:42:11.531Z,101497.50
2022-08-25T01:44:41.520Z,101501.31
2022-08-25T01:47:08.632Z,101498.69
2022-08-25T01:49:35.205Z,101493.31
2022-08-25T01:52:44.998Z,101487.22
2022-08-25T01:55:11.489Z,101500.94
2022-08-25T01:57:38.072Z,101504.34
2022-08-25T02:00:08.762Z,101506.66
2022-08-25T02:02:35.470Z,101502.06
2022-08-25T02:05:02.471Z,101491.00
2022-08-25T02:07:29.505Z,101502.47
2022-08-25T02:09:55.980Z,101491.34
2022-08-25T02:12:25.669Z,101484.88
2022-08-25T02:14:52.189Z,101486.34
2022-08-25T02:17:18.678Z,101489.06
2022-08-25T02:19:45.182Z,101492.84
2022-08-25T02:22:11.721Z,101489.47
2022-08-25T02:24:38.339Z,101490.63
2022-08-25T02:27:05.000Z,101492.56
2022-08-25T02:29:31.653Z,101489.56
2022-08-25T02:31:58.873Z,101500.66
2022-08-25T02:34:25.430Z,101501.78
2022-08-25T02:36:51.969Z,101501.44
2022-08-25T02:39:18.513Z,101499.91
2022-08-25T02:41:45.112Z,101505.25
2022-08-25T02:44:11.702Z,101494.13
2022-08-25T02:46:38.690Z,101492.25
2022-08-25T02:49:05.762Z,101488.41
2022-08-25T02:51:33.644Z,101492.59
2022-08-25T02:54:02.179Z,101489.56
2022-08-25T02:56:30.105Z,101480.75
2022-08-25T02:58:57.238Z,101476.56
2022-08-25T03:01:28.636Z,101474.63
2022-08-25T03:03:57.049Z,101468.91
2022-08-25T03:06:24.355Z,101466.59
2022-08-25T03:08:52.382Z,101468.91
2022-08-25T03:11:19.333Z,101473.50
2022-08-25T03:13:45.966Z,101483.81
2022-08-25T03:16:13.013Z,101475.41
2022-08-25T03:18:41.634Z,101470.06
2022-08-25T03:21:09.861Z,101470.44
2022-08-25T03:23:36.333Z,101470.44
2022-08-25T03:26:22.486Z,101470.81
2022-08-25T03:28:50.151Z,101477.31
2022-08-25T03:31:17.194Z,101471.19
2022-08-25T03:33:43.819Z,101465.09
2022-08-25T03:36:13.779Z,101461.25
2022-08-25T03:38:41.081Z,101466.59
2022-08-25T03:41:17.839Z,101459.34
2022-08-25T03:43:44.912Z,101458.94
2022-08-25T03:46:23.292Z,101459.72
2022-08-25T03:48:49.962Z,101464.69
2022-08-25T03:51:37.428Z,101465.47
2022-08-25T03:54:05.020Z,101470.03
2022-08-25T03:56:32.096Z,101470.03
2022-08-25T03:58:59.116Z,101478.06
2022-08-25T04:01:26.161Z,101484.19
2022-08-25T04:03:52.910Z,101477.66
2022-08-25T04:06:19.947Z,101476.50
2022-08-25T04:08:47.034Z,101477.31
2022-08-25T04:11:18.065Z,101486.09
2022-08-25T04:13:48.966Z,101482.69
2022-08-25T04:16:27.131Z,101485.72
2022-08-25T04:18:55.124Z,101487.25
2022-08-25T04:21:22.918Z,101480.38
2022-08-25T04:23:50.778Z,101481.16
2022-08-25T04:26:27.414Z,101485.75
2022-08-25T04:28:59.985Z,101483.81
2022-08-25T04:31:27.405Z,101476.94
2022-08-25T04:33:54.210Z,101477.31
2022-08-25T04:36:21.018Z,101479.25
2022-08-25T04:38:49.668Z,101472.72
2022-08-25T04:41:19.455Z,101470.81
2022-08-25T04:43:46.442Z,101462.41
2022-08-25T04:46:14.617Z,101460.09
2022-08-25T04:48:47.946Z,101469.25
2022-08-25T04:51:26.651Z,101457.78
2022-08-25T04:53:53.622Z,101456.63
2022-08-25T04:56:24.963Z,101464.69
2022-08-25T04:58:52.391Z,101463.13
2022-08-25T05:01:21.428Z,101455.50
2022-08-25T05:03:52.518Z,101447.47
2022-08-25T05:06:19.022Z,101450.88
2022-08-25T05:08:45.922Z,101442.09
2022-08-25T05:11:14.872Z,101444.00
2022-08-25T05:13:42.501Z,101447.78
2022-08-25T05:16:09.868Z,101439.75
2022-08-25T05:18:38.466Z,101445.50
2022-08-25T05:21:09.354Z,101444.69
2022-08-25T05:23:36.230Z,101456.97
2022-08-25T05:26:10.898Z,101456.56
2022-08-25T05:28:42.133Z,101451.59
2022-08-25T05:31:11.414Z,101459.94
2022-08-25T05:33:40.017Z,101463.34
2022-08-25T05:36:07.587Z,101456.91
2022-08-25T05:38:34.440Z,101449.19
2022-08-25T05:41:07.048Z,101454.94
2022-08-25T05:43:33.599Z,101457.28
2022-08-25T05:46:00.435Z,101462.66
2022-08-25T05:48:27.320Z,101456.97
2022-08-25T05:50:59.976Z,101456.16
2022-08-25T05:53:27.935Z,101450.00
2022-08-25T05:55:59.022Z,101458.44
2022-08-25T05:58:28.275Z,101460.38
2022-08-25T06:00:55.984Z,101456.09
2022-08-25T06:03:22.582Z,101454.13
2022-08-25T06:05:49.400Z,101458.31
2022-08-25T06:08:16.194Z,101465.16
2022-08-25T06:10:42.904Z,101469.75
2022-08-25T06:13:09.509Z,101465.97
2022-08-25T06:15:36.284Z,101474.38
2022-08-25T06:18:03.462Z,101472.13
2022-08-25T06:20:31.233Z,101468.25
2022-08-25T06:22:58.137Z,101468.59
2022-08-25T06:25:26.503Z,101468.53
2022-08-25T06:27:53.913Z,101463.53
2022-08-25T06:30:28.443Z,101476.91
2022-08-25T06:32:55.435Z,101469.16
2022-08-25T06:35:22.757Z,101478.75
2022-08-25T06:37:49.249Z,101479.63
2022-08-25T06:40:16.551Z,101479.63
2022-08-25T06:42:43.290Z,101477.34
2022-08-25T06:45:10.303Z,101477.66
2022-08-25T06:47:36.875Z,101476.91
2022-08-25T06:50:04.897Z,101486.16
2022-08-25T06:52:31.760Z,101476.38
2022-08-25T06:54:58.314Z,101479.72
2022-08-25T06:57:25.214Z,101488.47
2022-08-25T06:59:53.622Z,101480.47
2022-08-25T07:02:21.888Z,101489.75
2022-08-25T07:04:48.974Z,101496.47
2022-08-25T07:07:15.456Z,101493.44
2022-08-25T07:09:42.056Z,101493.06
2022-08-25T07:12:08.698Z,101498.00
2022-08-25T07:14:36.407Z,101499.47
2022-08-25T07:17:03.441Z,101507.50
2022-08-25T07:19:37.628Z,101504.03
2022-08-25T07:22:04.254Z,101513.44
2022-08-25T07:24:30.821Z,101519.59
2022-08-25T07:26:57.495Z,101519.19
2022-08-25T07:29:32.705Z,101519.03
2022-08-25T07:32:01.496Z,101528.69
2022-08-25T07:34:52.340Z,101526.16
2022-08-25T07:37:38.269Z,101517.41
2022-08-25T07:40:08.185Z,101527.75
2022-08-25T07:42:36.022Z,101535.06
2022-08-25T07:45:07.258Z,101532.66
2022-08-25T07:47:34.186Z,101532.59
2022-08-25T07:50:00.694Z,101535.63
2022-08-25T07:52:28.243Z,101537.53
2022-08-25T07:54:55.256Z,101537.97
2022-08-25T07:57:23.948Z,101535.75
2022-08-25T07:59:50.678Z,101542.59
2022-08-25T08:02:19.356Z,101545.72
2022-08-25T08:04:51.515Z,101550.03
2022-08-25T08:07:19.906Z,101557.59
2022-08-25T08:09:55.906Z,101561.03
2022-08-25T08:12:27.485Z,101556.81
2022-08-25T08:14:54.403Z,101553.41
2022-08-25T08:17:21.089Z,101548.78
2022-08-25T08:19:47.635Z,101557.25
2022-08-25T08:22:17.647Z,101549.19
2022-08-25T08:24:54.966Z,101549.88
2022-08-25T08:27:23.248Z,101539.22
2022-08-25T08:29:50.111Z,101548.09
2022-08-25T08:32:17.963Z,101544.63
2022-08-25T08:34:51.152Z,101544.63
2022-08-25T08:37:22.817Z,101536.28
2022-08-25T08:39:49.733Z,101532.88
2022-08-25T08:42:26.669Z,101532.59
2022-08-25T08:45:11.797Z,101534.47
2022-08-25T08:48:18.670Z,101534.91
2022-08-25T08:51:11.692Z,101534.53
2022-08-25T08:53:46.270Z,101526.53
2022-08-25T08:56:20.658Z,101531.56
2022-08-25T08:58:56.386Z,101532.28
2022-08-25T09:01:38.320Z,101529.25
2022-08-25T09:04:24.531Z,101522.00
2022-08-25T09:06:51.219Z,101526.69
2022-08-25T09:09:27.610Z,101533.50
2022-08-25T09:11:54.610Z,101529.69
2022-08-25T09:14:30.921Z,101523.91
2022-08-25T09:17:00.419Z,101528.56
2022-08-25T09:19:27.203Z,101521.28
2022-08-25T09:22:35.182Z,101513.19
2022-08-25T09:25:52.534Z,101501.28
2022-08-25T09:28:21.851Z,101489.50
2022-08-25T09:30:52.199Z,101499.84
2022-08-25T09:33:22.541Z,101491.44
2022-08-25T09:35:50.568Z,101491.03
2022-08-25T09:38:20.853Z,101488.34
2022-08-25T09:40:52.809Z,101482.25
2022-08-25T09:43:21.503Z,101476.47
2022-08-25T09:46:00.457Z,101475.31
2022-08-25T09:48:39.757Z,101462.69
2022-08-25T09:51:16.714Z,101463.00
2022-08-25T09:53:57.871Z,101461.09
2022-08-25T09:56:51.823Z,101455.72
2022-08-25T09:59:34.538Z,101454.94
2022-08-25T10:02:25.804Z,101459.16
2022-08-25T10:04:55.144Z,101460.72
2022-08-25T10:07:37.482Z,101455.28
2022-08-25T10:10:19.190Z,101465.59
2022-08-25T10:12:51.358Z,101454.13
2022-08-25T10:15:29.474Z,101448.75
2022-08-25T10:17:57.618Z,101429.13
2022-08-25T10:20:27.157Z,101429.16
2022-08-25T10:23:19.985Z,101424.53
2022-08-25T10:25:59.415Z,101413.00
2022-08-25T10:29:07.795Z,101409.38
2022-08-25T10:31:53.496Z,101408.00
2022-08-25T10:34:36.950Z,101416.84
2022-08-25T10:37:15.339Z,101418.00
2022-08-25T10:39:44.645Z,101421.03
2022-08-25T10:42:38.404Z,101419.84
2022-08-25T10:45:32.569Z,101421.34
2022-08-25T10:48:31.974Z,101419.00
2022-08-25T10:51:08.572Z,101416.63
2022-08-25T10:54:00.302Z,101425.28
2022-08-25T10:56:40.100Z,101429.78
2022-08-25T10:59:42.797Z,101417.44
2022-08-25T11:02:38.346Z,101424.75
2022-08-25T11:05:24.958Z,101421.91
2022-08-25T11:07:55.299Z,101428.84
2022-08-25T11:10:35.766Z,101427.97
2022-08-25T11:13:11.153Z,101420.63
2022-08-25T11:15:54.807Z,101424.16
2022-08-25T11:18:31.918Z,101431.19
2022-08-25T11:21:16.323Z,101420.44
2022-08-25T11:24:08.942Z,101418.34
2022-08-25T11:26:37.533Z,101409.13
2022-08-25T11:29:14.196Z,101407.19
2022-08-25T11:31:52.123Z,101409.81
2022-08-25T11:34:20.455Z,101403.63
2022-08-25T11:36:57.672Z,101401.59
2022-08-25T11:39:34.834Z,101398.41
2022-08-25T11:42:26.371Z,101397.03
2022-08-25T11:45:12.908Z,101399.94
2022-08-25T11:47:49.479Z,101408.53
2022-08-25T11:50:35.088Z,101407.81
2022-08-25T11:53:26.525Z,101411.41
2022-08-25T11:56:34.611Z,101396.66
2022-08-25T11:59:01.339Z,101403.91
2022-08-25T12:01:42.310Z,101404.38
2022-08-25T12:04:16.318Z,101397.88
2022-08-25T12:07:09.130Z,101403.41
2022-08-25T12:09:55.394Z,101391.72
2022-08-25T12:12:38.440Z,101394.09
2022-08-25T12:15:39.544Z,101400.88
2022-08-25T12:18:13.424Z,101403.34
2022-08-25T12:20:56.308Z,101408.34
2022-08-25T12:23:35.004Z,101406.28
2022-08-25T12:26:23.752Z,101410.25
2022-08-25T12:28:59.228Z,101405.41
2022-08-25T12:31:39.630Z,101402.13
2022-08-25T12:34:19.201Z,101403.34
2022-08-25T12:37:02.550Z,101401.25
2022-08-25T12:39:37.934Z,101410.78
2022-08-25T12:42:06.896Z,101406.63
2022-08-25T12:44:42.724Z,101397.63
2022-08-25T12:47:27.133Z,101395.34
2022-08-25T12:49:55.833Z,101391.91
2022-08-25T12:52:25.153Z,101384.63
2022-08-25T12:54:58.637Z,101387.81
2022-08-25T12:57:46.854Z,101394.59
2022-08-25T13:00:30.177Z,101389.72
2022-08-25T13:03:21.860Z,101388.53
2022-08-25T13:06:04.299Z,101392.44
2022-08-25T13:08:34.151Z,101391.63
2022-08-25T13:11:20.369Z,101385.13
2022-08-25T13:13:57.677Z,101389.53
2022-08-25T13:16:29.540Z,101389.38
2022-08-25T13:19:01.795Z,101400.13
2022-08-25T13:21:38.951Z,101403.69
2022-08-25T13:24:11.004Z,101390.50
2022-08-25T13:26:48.242Z,101389.69
2022-08-25T13:29:20.794Z,101377.84
2022-08-25T13:32:01.324Z,101373.50
2022-08-25T13:34:34.967Z,101374.38
2022-08-25T13:37:29.679Z,101376.91
2022-08-25T13:40:17.627Z,101369.38
2022-08-25T13:42:53.027Z,101371.88
2022-08-25T13:45:28.761Z,101365.31
2022-08-25T13:47:56.954Z,101359.94
2022-08-25T13:50:38.450Z,101355.00
2022-08-25T13:53:11.364Z,101357.59
2022-08-25T13:55:53.262Z,101353.97
2022-08-25T13:58:44.343Z,101350.09
2022-08-25T14:01:32.283Z,101345.94
2022-08-25T14:04:25.346Z,101359.38
2022-08-25T14:07:08.772Z,101343.03
2022-08-25T14:09:49.592Z,101350.53
2022-08-25T14:12:33.035Z,101348.09
2022-08-25T14:15:27.275Z,101350.78
2022-08-25T14:18:14.267Z,101343.81
2022-08-25T14:20:50.965Z,101346.22
2022-08-25T14:23:24.259Z,101349.84
2022-08-25T14:25:52.462Z,101348.38
2022-08-25T14:28:22.840Z,101349.34
2022-08-25T14:30:55.572Z,101339.31
2022-08-25T14:33:27.833Z,101347.44
2022-08-25T14:35:55.573Z,101343.50
2022-08-25T14:38:22.941Z,101340.69
2022-08-25T14:40:50.985Z,101333.09
2022-08-25T14:43:18.323Z,101328.81
2022-08-25T14:45:51.021Z,101329.59
2022-08-25T14:48:35.685Z,101322.00
2022-08-25T14:51:05.018Z,101321.69
2022-08-25T14:53:32.158Z,101324.75
2022-08-25T14:55:59.440Z,101317.81
2022-08-25T14:58:27.019Z,101326.00
2022-08-25T15:00:54.269Z,101323.69
2022-08-25T15:03:42.863Z,101322.75
2022-08-25T15:06:15.671Z,101326.91
2022-08-25T15:09:01.607Z,101322.53
2022-08-25T15:11:30.293Z,101321.03
2022-08-25T15:13:57.114Z,101322.59
2022-08-25T15:16:35.495Z,101318.88
2022-08-25T15:19:06.803Z,101322.69
2022-08-25T15:21:34.430Z,101322.50
2022-08-25T15:24:03.617Z,101320.81
2022-08-25T15:26:31.187Z,101316.50
2022-08-25T15:28:58.898Z,101321.22
2022-08-25T15:31:25.685Z,101324.22
2022-08-25T15:33:53.606Z,101319.22
2022-08-25T15:36:24.702Z,101314.94
2022-08-25T15:38:51.823Z,101313.38
2022-08-25T15:41:18.678Z,101308.16
2022-08-25T15:43:45.204Z,101300.47
2022-08-25T15:46:16.798Z,101301.97
2022-08-25T15:48:43.829Z,101293.56
2022-08-25T15:51:12.259Z,101292.72
2022-08-25T15:53:39.026Z,101294.41
2022-08-25T15:56:07.440Z,101287.97
2022-08-25T15:58:35.408Z,101286.41
2022-08-25T16:01:02.350Z,101279.41
2022-08-25T16:03:31.421Z,101281.91
2022-08-25T16:05:57.999Z,101273.78
2022-08-25T16:08:24.801Z,101271.50
2022-08-25T16:10:51.616Z,101271.00
2022-08-25T16:13:18.523Z,101271.41
2022-08-25T16:15:53.101Z,101264.06
2022-08-25T16:18:26.329Z,101256.00
2022-08-25T16:20:54.071Z,101252.81
2022-08-25T16:23:20.809Z,101254.41
2022-08-25T16:25:48.658Z,101257.41
2022-08-25T16:28:16.701Z,101256.31
2022-08-25T16:30:52.733Z,101251.41
2022-08-25T16:33:20.502Z,101254.47
2022-08-25T16:35:47.427Z,101246.41
2022-08-25T16:38:15.749Z,101248.06
2022-08-25T16:40:43.295Z,101257.44
2022-08-25T16:43:12.548Z,101255.81
2022-08-25T16:45:39.051Z,101257.19
2022-08-25T16:48:09.420Z,101253.34
2022-08-25T16:50:40.084Z,101248.88
2022-08-25T16:53:25.775Z,101252.22
2022-08-25T16:56:01.478Z,101256.19
2022-08-25T16:58:30.178Z,101244.53
2022-08-25T17:01:25.271Z,101248.75
2022-08-25T17:03:53.153Z,101239.88
2022-08-25T17:06:21.092Z,101248.81
2022-08-25T17:08:50.735Z,101252.53
2022-08-25T17:11:19.798Z,101255.22
2022-08-25T17:13:50.417Z,101254.16
2022-08-25T17:16:17.840Z,101251.63
2022-08-25T17:18:48.091Z,101245.81
2022-08-25T17:21:24.621Z,101250.44
2022-08-25T17:23:52.659Z,101248.38
2022-08-25T17:26:19.974Z,101249.22
2022-08-25T17:28:55.053Z,101250.72
2022-08-25T17:31:22.340Z,101247.72
2022-08-25T17:33:50.986Z,101249.31
2022-08-25T17:36:17.605Z,101253.97
2022-08-25T17:38:45.232Z,101249.41
2022-08-25T17:41:15.992Z,101250.88
2022-08-25T17:43:44.025Z,101247.44
2022-08-25T17:46:12.530Z,101253.53
2022-08-25T17:48:43.734Z,101245.56
2022-08-25T17:51:11.134Z,101247.53
2022-08-25T17:53:38.558Z,101249.38
2022-08-25T17:56:10.708Z,101242.19
2022-08-25T17:58:40.707Z,101244.88
2022-08-25T18:01:08.559Z,101249.31
2022-08-25T18:03:35.459Z,101245.03
2022-08-25T18:06:04.633Z,101250.91
2022-08-25T18:08:34.812Z,101247.94
2022-08-25T18:11:01.892Z,101242.97
2022-08-25T18:13:30.654Z,101243.31
2022-08-25T18:15:57.800Z,101251.00
2022-08-25T18:18:24.428Z,101246.47
2022-08-25T18:20:51.062Z,101251.53
2022-08-25T18:23:21.481Z,101254.94
2022-08-25T18:25:49.655Z,101240.38
2022-08-25T18:28:16.938Z,101245.38
2022-08-25T18:30:43.706Z,101251.81
2022-08-25T18:33:10.474Z,101243.91
2022-08-25T18:35:37.958Z,101249.66
2022-08-25T18:38:24.181Z,101248.97
2022-08-25T18:40:59.661Z,101245.09
2022-08-25T18:43:28.459Z,101245.84
2022-08-25T18:46:01.767Z,101252.66
2022-08-25T18:48:28.418Z,101250.75
2022-08-25T18:50:56.658Z,101245.44
2022-08-25T18:53:30.175Z,101249.22
2022-08-25T18:56:04.655Z,101240.13
2022-08-25T18:58:31.559Z,101244.88
2022-08-25T19:00:58.140Z,101246.44
2022-08-25T19:03:24.753Z,101243.72
2022-08-25T19:05:57.138Z,101249.09
2022-08-25T19:08:24.325Z,101245.28
2022-08-25T19:10:53.608Z,101246.47
2022-08-25T19:13:22.721Z,101247.63
2022-08-25T19:15:50.970Z,101251.03
2022-08-25T19:18:18.847Z,101253.41
2022-08-25T19:20:52.643Z,101249.63
2022-08-25T19:23:19.558Z,101245.06
2022-08-25T19:25:46.092Z,101244.28
2022-08-25T19:28:13.882Z,101243.88
2022-08-25T19:30:49.932Z,101237.06
2022-08-25T19:33:42.763Z,101242.34
2022-08-25T19:36:08.833Z,101240.44
2022-08-25T19:38:37.567Z,101243.09
2022-08-25T19:41:10.735Z,101241.50
2022-08-25T19:43:50.503Z,101240.75
2022-08-25T19:46:33.241Z,101248.84
2022-08-25T19:49:08.124Z,101238.91
2022-08-25T19:51:44.695Z,101233.44
2022-08-25T19:54:17.164Z,101228.53
2022-08-25T19:56:55.003Z,101231.16
2022-08-25T19:59:34.129Z,101230.09
2022-08-25T20:02:01.187Z,101227.47
2022-08-25T20:04:28.041Z,101228.56
2022-08-25T20:06:55.670Z,101230.81
2022-08-25T20:09:38.907Z,101231.94
2022-08-25T20:12:08.489Z,101231.59
2022-08-25T20:14:36.484Z,101230.03
2022-08-25T20:17:03.938Z,101231.97
2022-08-25T20:19:41.312Z,101222.38
2022-08-25T20:22:11.272Z,101223.22
2022-08-25T20:24:56.246Z,101219.75
2022-08-25T20:27:35.021Z,101220.16
2022-08-25T20:30:05.238Z,101221.72
2022-08-25T20:32:33.026Z,101220.91
2022-08-25T20:35:01.055Z,101229.72
2022-08-25T20:37:28.319Z,101221.25
2022-08-25T20:39:55.142Z,101225.81
2022-08-25T20:42:21.760Z,101223.91
2022-08-25T20:44:48.274Z,101221.22
2022-08-25T20:47:15.440Z,101228.16
2022-08-25T20:49:44.483Z,101223.59
2022-08-25T20:52:12.067Z,101225.88
2022-08-25T20:54:40.447Z,101223.56
2022-08-25T20:57:08.138Z,101232.75
2022-08-25T20:59:35.108Z,101226.63
2022-08-25T21:02:01.819Z,101230.44
2022-08-25T21:04:30.606Z,101219.41
2022-08-25T21:07:00.183Z,101222.78
2022-08-25T21:09:28.047Z,101219.34
2022-08-25T21:11:56.715Z,101225.94
2022-08-25T21:14:24.684Z,101229.00
2022-08-25T21:16:53.509Z,101222.81
2022-08-25T21:19:26.304Z,101220.56
2022-08-25T21:21:54.250Z,101213.69
2022-08-25T21:24:27.506Z,101218.22
2022-08-25T21:26:55.908Z,101223.59
2022-08-25T21:29:24.502Z,101222.81
2022-08-25T21:31:51.059Z,101218.22
2022-08-25T21:34:18.721Z,101218.22
2022-08-25T21:36:45.817Z,101212.09
2022-08-25T21:39:13.215Z,101215.56
2022-08-25T21:41:42.790Z,101206.44
2022-08-25T21:44:10.032Z,101212.94
2022-08-25T21:46:36.614Z,101205.66
2022-08-25T21:49:06.186Z,101201.09
2022-08-25T21:51:41.906Z,101205.31
2022-08-25T21:54:11.966Z,101205.66
2022-08-25T21:56:49.651Z,101198.03
2022-08-25T21:59:18.766Z,101188.50
2022-08-25T22:01:45.941Z,101194.22
2022-08-25T22:04:13.524Z,101194.16
2022-08-25T22:06:40.928Z,101181.97
2022-08-25T22:09:10.956Z,101193.81
2022-08-25T22:11:37.600Z,101190.34
2022-08-25T22:14:05.644Z,101183.41
2022-08-25T22:16:34.967Z,101183.44
2022-08-25T22:19:04.459Z,101183.03
2022-08-25T22:21:32.888Z,101176.13
2022-08-25T22:24:04.124Z,101176.16
2022-08-25T22:26:32.287Z,101183.78
2022-08-25T22:29:03.944Z,101178.84
2022-08-25T22:31:31.450Z,101161.22
2022-08-25T22:33:58.121Z,101166.91
2022-08-25T22:36:35.436Z,101163.47
2022-08-25T22:39:03.290Z,101160.47
2022-08-25T22:41:32.216Z,101166.13
2022-08-25T22:44:00.204Z,101150.81
2022-08-25T22:46:32.326Z,101158.09
2022-08-25T22:49:00.146Z,101140.88
2022-08-25T22:51:30.483Z,101144.28
2022-08-25T22:53:59.369Z,101137.41
2022-08-25T22:56:34.733Z,101145.44
2022-08-25T22:59:09.510Z,101130.09
2022-08-25T23:01:37.102Z,101134.28
2022-08-25T23:04:05.781Z,101129.38
2022-08-25T23:06:34.399Z,101132.81
2022-08-25T23:09:02.628Z,101122.47
2022-08-25T23:11:29.219Z,101116.25
2022-08-25T23:13:57.519Z,101105.53
2022-08-25T23:16:25.284Z,101099.53
2022-08-25T23:18:52.845Z,101104.19
2022-08-25T23:21:41.295Z,101105.16
2022-08-25T23:24:10.984Z,101099.03
2022-08-25T23:26:42.414Z,101102.56
2022-08-25T23:29:18.749Z,101096.53
2022-08-25T23:31:47.748Z,101099.22
2022-08-25T23:34:15.664Z,101096.06
2022-08-25T23:36:43.536Z,101108.94
2022-08-25T23:39:11.069Z,101104.75
2022-08-25T23:41:37.571Z,101100.88
2022-08-25T23:44:05.806Z,101096.97
2022-08-25T23:46:35.054Z,101097.72
2022-08-25T23:49:02.649Z,101095.06
2022-08-25T23:51:33.701Z,101084.34
2022-08-25T23:54:04.054Z,101090.16
2022-08-25T23:56:30.614Z,101083.69
2022-08-25T23:58:57.444Z,101077.50
